createdAt,value
2022-10-30T19:51:23.523Z,25.97
2022-10-30T19:56:25.240Z,26.90
2022-10-30T20:01:27.068Z,28.97
2022-10-30T20:06:28.820Z,28.20
2022-10-30T20:11:31.825Z,27.73
2022-10-30T20:16:33.539Z,29.80
2022-10-30T20:21:35.272Z,29.53
2022-10-30T20:26:38.316Z,30.17
2022-10-30T20:31:39.970Z,31.00
2022-10-30T20:36:41.689Z,31.53
2022-10-30T20:41:43.350Z,30.53
2022-10-30T20:46:45.105Z,34.83
2022-10-30T20:51:47.561Z,34.57
2022-10-30T20:56:49.231Z,37.97
2022-10-30T21:01:50.981Z,37.90
2022-10-30T21:06:52.784Z,36.17
2022-10-30T21:11:54.452Z,33.47
2022-10-30T21:16:56.094Z,30.87
2022-10-30T21:21:57.717Z,31.30
2022-10-30T21:26:59.478Z,29.97
2022-10-30T21:32:01.135Z,29.50
2022-10-30T21:37:02.812Z,22.40
2022-10-30T21:42:04.531Z,26.20
2022-10-30T21:47:06.219Z,26.00
2022-10-30T21:52:09.949Z,24.77
2022-10-30T22:02:14.238Z,19.83
2022-10-30T22:07:19.605Z,18.90
2022-10-30T22:12:21.253Z,15.47
2022-10-30T22:17:22.922Z,14.17
2022-10-30T22:22:24.582Z,13.57
2022-10-30T22:27:26.247Z,13.47
2022-10-30T22:32:27.904Z,19.30
2022-10-30T22:37:29.589Z,12.47
2022-10-30T22:42:31.234Z,12.17
2022-10-30T22:47:32.893Z,11.37
2022-10-30T22:52:34.545Z,11.67
2022-10-30T22:57:36.225Z,10.63
2022-10-30T23:02:37.902Z,10.97
2022-10-30T23:07:39.567Z,10.60
2022-10-30T23:12:41.240Z,10.83
2022-10-30T23:17:42.924Z,11.37
2022-10-30T23:22:44.609Z,9.70
2022-10-30T23:27:46.594Z,9.93
2022-10-30T23:32:48.541Z,10.53
2022-10-30T23:37:50.217Z,12.77
2022-10-30T23:42:55.309Z,10.77
2022-10-30T23:47:57.324Z,11.10
2022-10-30T23:52:59.231Z,10.83
2022-10-30T23:58:01.284Z,10.53
